Terminal Aerodrome Forecast
Issued by NWS Charleston, SC

Home | Current Version | Previous Version | Text Only | Print | Product List | Glossary On
Versions: 1 2 3 4 5 6 7 8 9 10 11 12 13 14
963
FTUS42 KCHS 211121 CCA
TAFSAV
TAF COR
KSAV 211121Z 2112/2212 06004KT P6SM VCSH SCT015 BKN150
     FM211500 11007KT P6SM VCTS SCT030CB BKN060
      TEMPO 2116/2120 5SM SHRA BR BKN030
     FM212200 12005KT P6SM SCT040 BKN120
     FM220400 00000KT P6SM SCT015 BKN150=

USA.gov is the U.S. government's official web portal to all federal, state and local government web resources and services.